Soperton, Wisconsin
Current Conditions -  °F | °C
As of 4:55 PM on Saturday 25 Oct 2014 (Local Time) from KAIG Reporting Station
Clear Clear  
Wind Chill: 57°   Ceiling: Unl
Heat Index: 57°   Visibility: 10mi
Dew Point: 25°   Wind: 16mph
Humidity: 29%   Direction: 310°NW
Pressure: 29.86"   Gusts: 36mph
Location:  45.4387°N, 88.6036°W
Report Text: KAIG 252155Z AUTO 31014G31KT 10SM CLR 14/M04 A2986 RMK AO2 T01371040
Loading
Personal Weather Stations






























Interactive Weather Map
Tropical Storm Tracking
New forecast layout! Learn more

10-Day Weather Forecast

Advertisements
Track Severe Weather on mobile